sensor_id;sensor_type;location;lat;lon;timestamp;P1;durP1;ratioP1;P2;durP2;ratioP2
80961;SDS011;70424;55.154;14.722;2024-03-06T00:00:24;24.02;;;14.90;;
80961;SDS011;70424;55.154;14.722;2024-03-06T00:02:50;28.05;;;15.18;;
80961;SDS011;70424;55.154;14.722;2024-03-06T00:05:15;26.50;;;15.18;;
80961;SDS011;70424;55.154;14.722;2024-03-06T00:07:41;27.00;;;16.02;;
80961;SDS011;70424;55.154;14.722;2024-03-06T00:10:06;27.98;;;16.45;;
80961;SDS011;70424;55.154;14.722;2024-03-06T00:12:32;24.52;;;14.90;;
80961;SDS011;70424;55.154;14.722;2024-03-06T00:14:58;27.38;;;15.93;;
80961;SDS011;70424;55.154;14.722;2024-03-06T00:17:23;24.73;;;16.05;;
80961;SDS011;70424;55.154;14.722;2024-03-06T00:19:49;28.60;;;15.45;;
80961;SDS011;70424;55.154;14.722;2024-03-06T00:22:14;25.48;;;15.48;;
80961;SDS011;70424;55.154;14.722;2024-03-06T00:24:40;32.13;;;17.17;;
80961;SDS011;70424;55.154;14.722;2024-03-06T00:27:05;28.15;;;15.45;;
80961;SDS011;70424;55.154;14.722;2024-03-06T00:29:31;28.02;;;16.60;;
80961;SDS011;70424;55.154;14.722;2024-03-06T00:31:56;30.77;;;16.73;;
80961;SDS011;70424;55.154;14.722;2024-03-06T00:34:22;27.98;;;16.08;;
80961;SDS011;70424;55.154;14.722;2024-03-06T00:36:47;28.80;;;15.73;;
80961;SDS011;70424;55.154;14.722;2024-03-06T00:39:13;27.48;;;15.18;;
80961;SDS011;70424;55.154;14.722;2024-03-06T00:41:41;26.23;;;15.32;;
80961;SDS011;70424;55.154;14.722;2024-03-06T00:44:07;25.75;;;15.65;;
80961;SDS011;70424;55.154;14.722;2024-03-06T00:46:32;25.77;;;15.40;;
80961;SDS011;70424;55.154;14.722;2024-03-06T00:48:58;32.42;;;16.05;;
80961;SDS011;70424;55.154;14.722;2024-03-06T00:51:23;25.88;;;15.55;;
80961;SDS011;70424;55.154;14.722;2024-03-06T00:53:49;28.35;;;16.42;;
80961;SDS011;70424;55.154;14.722;2024-03-06T00:56:14;21.77;;;13.60;;
80961;SDS011;70424;55.154;14.722;2024-03-06T00:58:39;27.98;;;15.68;;
80961;SDS011;70424;55.154;14.722;2024-03-06T01:01:05;28.23;;;15.48;;
80961;SDS011;70424;55.154;14.722;2024-03-06T01:03:30;27.27;;;15.45;;
80961;SDS011;70424;55.154;14.722;2024-03-06T01:05:56;28.63;;;15.63;;
80961;SDS011;70424;55.154;14.722;2024-03-06T01:08:22;24.27;;;14.95;;
80961;SDS011;70424;55.154;14.722;2024-03-06T01:10:50;27.08;;;16.00;;
80961;SDS011;70424;55.154;14.722;2024-03-06T01:13:15;25.35;;;14.63;;
80961;SDS011;70424;55.154;14.722;2024-03-06T01:15:41;28.20;;;15.50;;
80961;SDS011;70424;55.154;14.722;2024-03-06T01:18:06;27.05;;;15.85;;
80961;SDS011;70424;55.154;14.722;2024-03-06T01:20:32;29.88;;;16.08;;
80961;SDS011;70424;55.154;14.722;2024-03-06T01:22:57;26.40;;;15.13;;
80961;SDS011;70424;55.154;14.722;2024-03-06T01:25:23;26.63;;;15.32;;
80961;SDS011;70424;55.154;14.722;2024-03-06T01:27:49;26.90;;;14.93;;
80961;SDS011;70424;55.154;14.722;2024-03-06T01:30:14;24.90;;;15.75;;
80961;SDS011;70424;55.154;14.722;2024-03-06T01:32:40;26.35;;;15.48;;
80961;SDS011;70424;55.154;14.722;2024-03-06T01:35:06;25.45;;;15.70;;
80961;SDS011;70424;55.154;14.722;2024-03-06T01:37:32;25.38;;;15.13;;
80961;SDS011;70424;55.154;14.722;2024-03-06T01:39:57;28.98;;;15.70;;
80961;SDS011;70424;55.154;14.722;2024-03-06T01:42:23;27.35;;;15.80;;
80961;SDS011;70424;55.154;14.722;2024-03-06T01:44:49;28.70;;;15.52;;
80961;SDS011;70424;55.154;14.722;2024-03-06T01:47:14;26.63;;;15.32;;
80961;SDS011;70424;55.154;14.722;2024-03-06T01:49:39;26.60;;;15.38;;
80961;SDS011;70424;55.154;14.722;2024-03-06T01:52:05;29.58;;;16.95;;
80961;SDS011;70424;55.154;14.722;2024-03-06T01:54:32;27.67;;;16.17;;
80961;SDS011;70424;55.154;14.722;2024-03-06T01:56:57;27.00;;;15.57;;
80961;SDS011;70424;55.154;14.722;2024-03-06T01:59:28;27.92;;;16.40;;
80961;SDS011;70424;55.154;14.722;2024-03-06T02:01:53;28.17;;;16.23;;
80961;SDS011;70424;55.154;14.722;2024-03-06T02:04:19;31.33;;;16.80;;
80961;SDS011;70424;55.154;14.722;2024-03-06T02:06:45;32.10;;;16.63;;
80961;SDS011;70424;55.154;14.722;2024-03-06T02:09:11;33.22;;;18.10;;
80961;SDS011;70424;55.154;14.722;2024-03-06T02:11:39;33.55;;;17.77;;
80961;SDS011;70424;55.154;14.722;2024-03-06T02:14:04;33.00;;;17.23;;
80961;SDS011;70424;55.154;14.722;2024-03-06T02:16:31;32.43;;;17.07;;
80961;SDS011;70424;55.154;14.722;2024-03-06T02:18:57;32.47;;;17.27;;
80961;SDS011;70424;55.154;14.722;2024-03-06T02:21:23;32.15;;;17.50;;
80961;SDS011;70424;55.154;14.722;2024-03-06T02:23:50;38.15;;;18.38;;
80961;SDS011;70424;55.154;14.722;2024-03-06T02:26:20;31.65;;;16.48;;
80961;SDS011;70424;55.154;14.722;2024-03-06T02:28:47;32.60;;;17.17;;
80961;SDS011;70424;55.154;14.722;2024-03-06T02:31:14;28.50;;;15.95;;
80961;SDS011;70424;55.154;14.722;2024-03-06T02:33:40;32.47;;;16.52;;
80961;SDS011;70424;55.154;14.722;2024-03-06T02:36:05;33.28;;;17.50;;
80961;SDS011;70424;55.154;14.722;2024-03-06T02:38:31;28.77;;;16.42;;
80961;SDS011;70424;55.154;14.722;2024-03-06T02:40:56;31.83;;;16.75;;
80961;SDS011;70424;55.154;14.722;2024-03-06T02:43:22;29.80;;;16.08;;
80961;SDS011;70424;55.154;14.722;2024-03-06T02:45:47;26.33;;;15.45;;
80961;SDS011;70424;55.154;14.722;2024-03-06T02:48:13;33.10;;;16.20;;
80961;SDS011;70424;55.154;14.722;2024-03-06T02:50:38;27.90;;;15.05;;
80961;SDS011;70424;55.154;14.722;2024-03-06T02:53:03;30.35;;;16.80;;
80961;SDS011;70424;55.154;14.722;2024-03-06T02:55:29;30.13;;;15.80;;
80961;SDS011;70424;55.154;14.722;2024-03-06T02:57:55;31.35;;;16.52;;
80961;SDS011;70424;55.154;14.722;2024-03-06T03:00:20;31.08;;;16.83;;
80961;SDS011;70424;55.154;14.722;2024-03-06T03:02:46;34.50;;;18.48;;
80961;SDS011;70424;55.154;14.722;2024-03-06T03:05:12;29.85;;;16.58;;
80961;SDS011;70424;55.154;14.722;2024-03-06T03:07:37;30.77;;;16.90;;
80961;SDS011;70424;55.154;14.722;2024-03-06T03:10:03;33.47;;;18.58;;
80961;SDS011;70424;55.154;14.722;2024-03-06T03:12:29;36.22;;;17.10;;
80961;SDS011;70424;55.154;14.722;2024-03-06T03:14:55;35.55;;;17.25;;
80961;SDS011;70424;55.154;14.722;2024-03-06T03:17:20;31.17;;;17.55;;
80961;SDS011;70424;55.154;14.722;2024-03-06T03:19:46;29.38;;;16.80;;
80961;SDS011;70424;55.154;14.722;2024-03-06T03:22:11;30.58;;;16.92;;
80961;SDS011;70424;55.154;14.722;2024-03-06T03:24:38;32.42;;;18.50;;
80961;SDS011;70424;55.154;14.722;2024-03-06T03:27:03;34.05;;;17.58;;
80961;SDS011;70424;55.154;14.722;2024-03-06T03:29:29;35.60;;;18.30;;
80961;SDS011;70424;55.154;14.722;2024-03-06T03:31:55;30.08;;;16.63;;
80961;SDS011;70424;55.154;14.722;2024-03-06T03:34:20;30.70;;;16.67;;
80961;SDS011;70424;55.154;14.722;2024-03-06T03:36:46;35.78;;;16.15;;
80961;SDS011;70424;55.154;14.722;2024-03-06T03:39:12;30.88;;;15.77;;
80961;SDS011;70424;55.154;14.722;2024-03-06T03:41:47;27.98;;;15.07;;
80961;SDS011;70424;55.154;14.722;2024-03-06T03:44:16;32.38;;;16.48;;
80961;SDS011;70424;55.154;14.722;2024-03-06T03:46:43;33.63;;;15.63;;
80961;SDS011;70424;55.154;14.722;2024-03-06T03:49:09;34.17;;;16.85;;
80961;SDS011;70424;55.154;14.722;2024-03-06T03:51:35;27.40;;;15.60;;
80961;SDS011;70424;55.154;14.722;2024-03-06T03:54:01;29.92;;;15.93;;
80961;SDS011;70424;55.154;14.722;2024-03-06T03:56:27;30.75;;;15.43;;
80961;SDS011;70424;55.154;14.722;2024-03-06T03:58:53;28.77;;;15.38;;
80961;SDS011;70424;55.154;14.722;2024-03-06T04:01:18;30.15;;;16.50;;
80961;SDS011;70424;55.154;14.722;2024-03-06T04:03:43;28.27;;;16.52;;
80961;SDS011;70424;55.154;14.722;2024-03-06T04:06:10;27.30;;;15.63;;
80961;SDS011;70424;55.154;14.722;2024-03-06T04:08:35;28.63;;;15.52;;
80961;SDS011;70424;55.154;14.722;2024-03-06T04:11:02;27.70;;;15.75;;
80961;SDS011;70424;55.154;14.722;2024-03-06T04:13:28;27.83;;;14.90;;
80961;SDS011;70424;55.154;14.722;2024-03-06T04:15:54;30.20;;;15.38;;
80961;SDS011;70424;55.154;14.722;2024-03-06T04:18:19;26.23;;;14.52;;
80961;SDS011;70424;55.154;14.722;2024-03-06T04:20:45;31.20;;;15.20;;
80961;SDS011;70424;55.154;14.722;2024-03-06T04:23:10;28.23;;;14.48;;
80961;SDS011;70424;55.154;14.722;2024-03-06T04:25:35;29.38;;;15.00;;
80961;SDS011;70424;55.154;14.722;2024-03-06T04:28:02;27.45;;;14.88;;
80961;SDS011;70424;55.154;14.722;2024-03-06T04:30:27;32.05;;;18.20;;
80961;SDS011;70424;55.154;14.722;2024-03-06T04:32:53;30.08;;;18.38;;
80961;SDS011;70424;55.154;14.722;2024-03-06T04:35:18;29.48;;;16.70;;
80961;SDS011;70424;55.154;14.722;2024-03-06T04:37:44;26.80;;;17.25;;
80961;SDS011;70424;55.154;14.722;2024-03-06T04:40:09;30.27;;;16.63;;
80961;SDS011;70424;55.154;14.722;2024-03-06T04:42:35;25.88;;;15.85;;
80961;SDS011;70424;55.154;14.722;2024-03-06T04:45:01;28.58;;;16.40;;
80961;SDS011;70424;55.154;14.722;2024-03-06T04:47:28;27.27;;;16.60;;
80961;SDS011;70424;55.154;14.722;2024-03-06T04:49:54;28.95;;;16.30;;
80961;SDS011;70424;55.154;14.722;2024-03-06T04:52:19;27.05;;;15.63;;
80961;SDS011;70424;55.154;14.722;2024-03-06T04:54:44;28.80;;;15.45;;
80961;SDS011;70424;55.154;14.722;2024-03-06T04:57:10;27.88;;;14.60;;
80961;SDS011;70424;55.154;14.722;2024-03-06T04:59:35;29.83;;;15.73;;
80961;SDS011;70424;55.154;14.722;2024-03-06T05:02:01;27.02;;;15.55;;
80961;SDS011;70424;55.154;14.722;2024-03-06T05:04:28;28.00;;;15.63;;
80961;SDS011;70424;55.154;14.722;2024-03-06T05:06:54;29.60;;;15.10;;
80961;SDS011;70424;55.154;14.722;2024-03-06T05:09:19;31.08;;;16.05;;
80961;SDS011;70424;55.154;14.722;2024-03-06T05:11:45;25.67;;;14.43;;
80961;SDS011;70424;55.154;14.722;2024-03-06T05:14:10;31.33;;;16.45;;
80961;SDS011;70424;55.154;14.722;2024-03-06T05:16:36;29.15;;;15.55;;
80961;SDS011;70424;55.154;14.722;2024-03-06T05:19:01;28.65;;;15.70;;
80961;SDS011;70424;55.154;14.722;2024-03-06T05:21:27;30.75;;;18.15;;
80961;SDS011;70424;55.154;14.722;2024-03-06T05:23:52;33.80;;;19.05;;
80961;SDS011;70424;55.154;14.722;2024-03-06T05:26:18;28.27;;;15.63;;
80961;SDS011;70424;55.154;14.722;2024-03-06T05:28:44;31.38;;;15.40;;
80961;SDS011;70424;55.154;14.722;2024-03-06T05:31:16;28.92;;;14.93;;
80961;SDS011;70424;55.154;14.722;2024-03-06T05:33:48;28.60;;;15.13;;
80961;SDS011;70424;55.154;14.722;2024-03-06T05:36:14;29.33;;;13.80;;
80961;SDS011;70424;55.154;14.722;2024-03-06T05:38:40;31.02;;;16.27;;
80961;SDS011;70424;55.154;14.722;2024-03-06T05:41:06;28.23;;;14.65;;
80961;SDS011;70424;55.154;14.722;2024-03-06T05:43:33;28.90;;;15.48;;
80961;SDS011;70424;55.154;14.722;2024-03-06T05:45:58;25.50;;;13.65;;
80961;SDS011;70424;55.154;14.722;2024-03-06T05:48:25;27.35;;;14.73;;
80961;SDS011;70424;55.154;14.722;2024-03-06T05:50:50;27.48;;;14.20;;
80961;SDS011;70424;55.154;14.722;2024-03-06T05:53:16;40.85;;;15.85;;
80961;SDS011;70424;55.154;14.722;2024-03-06T05:55:41;29.90;;;14.63;;
80961;SDS011;70424;55.154;14.722;2024-03-06T05:58:06;25.92;;;13.98;;
80961;SDS011;70424;55.154;14.722;2024-03-06T06:00:32;26.70;;;13.30;;
80961;SDS011;70424;55.154;14.722;2024-03-06T06:02:58;25.27;;;12.50;;
80961;SDS011;70424;55.154;14.722;2024-03-06T06:05:23;25.33;;;13.20;;
80961;SDS011;70424;55.154;14.722;2024-03-06T06:07:49;26.45;;;13.40;;
80961;SDS011;70424;55.154;14.722;2024-03-06T06:10:15;24.45;;;12.75;;
80961;SDS011;70424;55.154;14.722;2024-03-06T06:12:41;25.02;;;12.07;;
80961;SDS011;70424;55.154;14.722;2024-03-06T06:15:06;25.23;;;12.77;;
80961;SDS011;70424;55.154;14.722;2024-03-06T06:17:33;21.80;;;12.13;;
80961;SDS011;70424;55.154;14.722;2024-03-06T06:19:58;23.02;;;11.32;;
80961;SDS011;70424;55.154;14.722;2024-03-06T06:22:26;21.65;;;11.98;;
80961;SDS011;70424;55.154;14.722;2024-03-06T06:24:52;23.50;;;11.98;;
80961;SDS011;70424;55.154;14.722;2024-03-06T06:27:20;24.98;;;12.00;;
80961;SDS011;70424;55.154;14.722;2024-03-06T06:29:45;23.58;;;11.60;;
80961;SDS011;70424;55.154;14.722;2024-03-06T06:32:11;23.10;;;11.27;;
80961;SDS011;70424;55.154;14.722;2024-03-06T06:34:36;21.70;;;11.68;;
80961;SDS011;70424;55.154;14.722;2024-03-06T06:37:01;20.73;;;12.00;;
80961;SDS011;70424;55.154;14.722;2024-03-06T06:39:27;19.83;;;12.07;;
80961;SDS011;70424;55.154;14.722;2024-03-06T06:41:52;22.38;;;12.15;;
80961;SDS011;70424;55.154;14.722;2024-03-06T06:44:18;19.15;;;10.70;;
80961;SDS011;70424;55.154;14.722;2024-03-06T06:46:43;22.17;;;10.30;;
80961;SDS011;70424;55.154;14.722;2024-03-06T06:49:09;22.27;;;11.85;;
80961;SDS011;70424;55.154;14.722;2024-03-06T06:51:34;23.52;;;13.32;;
80961;SDS011;70424;55.154;14.722;2024-03-06T06:54:00;23.33;;;12.27;;
80961;SDS011;70424;55.154;14.722;2024-03-06T06:56:26;25.65;;;11.13;;
80961;SDS011;70424;55.154;14.722;2024-03-06T06:58:52;25.58;;;12.60;;
80961;SDS011;70424;55.154;14.722;2024-03-06T07:01:18;25.13;;;12.05;;
80961;SDS011;70424;55.154;14.722;2024-03-06T07:03:43;23.90;;;12.80;;
80961;SDS011;70424;55.154;14.722;2024-03-06T07:06:09;24.75;;;12.48;;
80961;SDS011;70424;55.154;14.722;2024-03-06T07:08:36;23.85;;;12.15;;
80961;SDS011;70424;55.154;14.722;2024-03-06T07:11:02;23.40;;;12.50;;
80961;SDS011;70424;55.154;14.722;2024-03-06T07:13:27;21.10;;;10.93;;
80961;SDS011;70424;55.154;14.722;2024-03-06T07:15:53;21.70;;;11.55;;
80961;SDS011;70424;55.154;14.722;2024-03-06T07:18:18;18.90;;;11.07;;
80961;SDS011;70424;55.154;14.722;2024-03-06T07:20:44;19.80;;;11.00;;
80961;SDS011;70424;55.154;14.722;2024-03-06T07:23:09;20.48;;;11.73;;
80961;SDS011;70424;55.154;14.722;2024-03-06T07:25:34;19.92;;;10.65;;
80961;SDS011;70424;55.154;14.722;2024-03-06T07:28:01;19.88;;;10.15;;
80961;SDS011;70424;55.154;14.722;2024-03-06T07:30:27;18.77;;;10.55;;
80961;SDS011;70424;55.154;14.722;2024-03-06T07:32:54;18.25;;;10.18;;
80961;SDS011;70424;55.154;14.722;2024-03-06T07:35:20;19.88;;;10.48;;
80961;SDS011;70424;55.154;14.722;2024-03-06T07:37:45;20.85;;;10.52;;
80961;SDS011;70424;55.154;14.722;2024-03-06T07:40:12;19.30;;;10.50;;
80961;SDS011;70424;55.154;14.722;2024-03-06T07:42:37;19.40;;;10.45;;
80961;SDS011;70424;55.154;14.722;2024-03-06T07:45:04;20.23;;;10.98;;
80961;SDS011;70424;55.154;14.722;2024-03-06T07:47:33;20.23;;;10.68;;
80961;SDS011;70424;55.154;14.722;2024-03-06T07:49:58;22.25;;;11.13;;
80961;SDS011;70424;55.154;14.722;2024-03-06T07:52:24;21.90;;;12.25;;
80961;SDS011;70424;55.154;14.722;2024-03-06T07:54:49;21.45;;;10.43;;
80961;SDS011;70424;55.154;14.722;2024-03-06T07:57:14;21.88;;;10.90;;
80961;SDS011;70424;55.154;14.722;2024-03-06T07:59:40;23.08;;;11.40;;
80961;SDS011;70424;55.154;14.722;2024-03-06T08:02:05;19.73;;;10.48;;
80961;SDS011;70424;55.154;14.722;2024-03-06T08:04:31;17.52;;;10.52;;
80961;SDS011;70424;55.154;14.722;2024-03-06T08:06:57;19.15;;;11.20;;
80961;SDS011;70424;55.154;14.722;2024-03-06T08:09:22;22.70;;;11.23;;
80961;SDS011;70424;55.154;14.722;2024-03-06T08:11:48;19.83;;;10.93;;
80961;SDS011;70424;55.154;14.722;2024-03-06T08:14:14;21.58;;;11.20;;
80961;SDS011;70424;55.154;14.722;2024-03-06T08:16:42;17.38;;;10.32;;
80961;SDS011;70424;55.154;14.722;2024-03-06T08:19:07;19.17;;;9.65;;
80961;SDS011;70424;55.154;14.722;2024-03-06T08:21:33;21.77;;;10.18;;
80961;SDS011;70424;55.154;14.722;2024-03-06T08:23:59;22.42;;;10.85;;
80961;SDS011;70424;55.154;14.722;2024-03-06T08:26:25;17.70;;;10.35;;
80961;SDS011;70424;55.154;14.722;2024-03-06T08:28:51;19.38;;;9.93;;
80961;SDS011;70424;55.154;14.722;2024-03-06T08:31:16;17.30;;;9.43;;
80961;SDS011;70424;55.154;14.722;2024-03-06T08:33:42;19.65;;;9.75;;
80961;SDS011;70424;55.154;14.722;2024-03-06T08:36:09;18.10;;;9.50;;
80961;SDS011;70424;55.154;14.722;2024-03-06T08:38:34;18.25;;;9.52;;
80961;SDS011;70424;55.154;14.722;2024-03-06T08:41:00;16.67;;;9.18;;
80961;SDS011;70424;55.154;14.722;2024-03-06T08:43:25;15.82;;;8.68;;
80961;SDS011;70424;55.154;14.722;2024-03-06T08:45:51;16.08;;;8.85;;
80961;SDS011;70424;55.154;14.722;2024-03-06T08:48:16;16.60;;;9.00;;
80961;SDS011;70424;55.154;14.722;2024-03-06T08:50:43;15.88;;;8.82;;
80961;SDS011;70424;55.154;14.722;2024-03-06T08:53:08;20.15;;;9.90;;
80961;SDS011;70424;55.154;14.722;2024-03-06T08:55:34;16.10;;;9.27;;
80961;SDS011;70424;55.154;14.722;2024-03-06T08:58:00;14.82;;;8.68;;
80961;SDS011;70424;55.154;14.722;2024-03-06T09:00:26;16.02;;;8.23;;
80961;SDS011;70424;55.154;14.722;2024-03-06T09:02:51;17.60;;;8.65;;
80961;SDS011;70424;55.154;14.722;2024-03-06T09:05:18;14.95;;;8.05;;
80961;SDS011;70424;55.154;14.722;2024-03-06T09:07:43;14.10;;;7.40;;
80961;SDS011;70424;55.154;14.722;2024-03-06T09:10:12;12.38;;;7.07;;
80961;SDS011;70424;55.154;14.722;2024-03-06T09:12:38;12.70;;;6.63;;
80961;SDS011;70424;55.154;14.722;2024-03-06T09:15:04;13.35;;;7.57;;
80961;SDS011;70424;55.154;14.722;2024-03-06T09:19:57;15.75;;;7.40;;
80961;SDS011;70424;55.154;14.722;2024-03-06T09:22:23;14.10;;;7.30;;
80961;SDS011;70424;55.154;14.722;2024-03-06T09:24:49;14.30;;;7.78;;
80961;SDS011;70424;55.154;14.722;2024-03-06T09:27:14;12.73;;;8.23;;
80961;SDS011;70424;55.154;14.722;2024-03-06T09:29:41;14.25;;;7.57;;
80961;SDS011;70424;55.154;14.722;2024-03-06T09:32:07;13.18;;;7.50;;
80961;SDS011;70424;55.154;14.722;2024-03-06T09:34:33;15.05;;;7.68;;
80961;SDS011;70424;55.154;14.722;2024-03-06T09:36:58;15.05;;;7.90;;
80961;SDS011;70424;55.154;14.722;2024-03-06T09:39:24;14.95;;;7.55;;
80961;SDS011;70424;55.154;14.722;2024-03-06T09:41:50;15.57;;;7.63;;
80961;SDS011;70424;55.154;14.722;2024-03-06T09:44:16;12.90;;;7.53;;
80961;SDS011;70424;55.154;14.722;2024-03-06T09:46:42;13.45;;;6.85;;
80961;SDS011;70424;55.154;14.722;2024-03-06T09:49:12;16.67;;;8.13;;
80961;SDS011;70424;55.154;14.722;2024-03-06T09:51:42;16.10;;;7.03;;
80961;SDS011;70424;55.154;14.722;2024-03-06T09:54:18;12.63;;;6.87;;
80961;SDS011;70424;55.154;14.722;2024-03-06T09:56:44;18.17;;;7.80;;
80961;SDS011;70424;55.154;14.722;2024-03-06T09:59:11;13.10;;;6.57;;
80961;SDS011;70424;55.154;14.722;2024-03-06T10:04:19;12.75;;;6.55;;
80961;SDS011;70424;55.154;14.722;2024-03-06T10:06:54;14.77;;;6.55;;
80961;SDS011;70424;55.154;14.722;2024-03-06T10:09:20;16.00;;;6.43;;
80961;SDS011;70424;55.154;14.722;2024-03-06T10:11:46;15.02;;;6.70;;
80961;SDS011;70424;55.154;14.722;2024-03-06T10:14:12;11.90;;;5.75;;
80961;SDS011;70424;55.154;14.722;2024-03-06T10:16:38;10.52;;;5.95;;
80961;SDS011;70424;55.154;14.722;2024-03-06T10:19:19;16.73;;;6.70;;
80961;SDS011;70424;55.154;14.722;2024-03-06T10:21:48;12.52;;;6.03;;
80961;SDS011;70424;55.154;14.722;2024-03-06T10:24:26;14.50;;;6.75;;
80961;SDS011;70424;55.154;14.722;2024-03-06T10:26:57;14.57;;;6.18;;
80961;SDS011;70424;55.154;14.722;2024-03-06T10:29:25;14.32;;;6.97;;
80961;SDS011;70424;55.154;14.722;2024-03-06T10:31:55;13.50;;;6.63;;
80961;SDS011;70424;55.154;14.722;2024-03-06T10:34:22;11.57;;;5.97;;
80961;SDS011;70424;55.154;14.722;2024-03-06T10:36:56;12.00;;;6.20;;
80961;SDS011;70424;55.154;14.722;2024-03-06T10:39:23;13.20;;;6.43;;
80961;SDS011;70424;55.154;14.722;2024-03-06T10:41:55;12.20;;;5.88;;
80961;SDS011;70424;55.154;14.722;2024-03-06T10:44:25;13.82;;;6.20;;
80961;SDS011;70424;55.154;14.722;2024-03-06T10:47:01;13.52;;;6.53;;
80961;SDS011;70424;55.154;14.722;2024-03-06T10:49:28;13.93;;;6.70;;
80961;SDS011;70424;55.154;14.722;2024-03-06T10:51:58;16.02;;;6.32;;
80961;SDS011;70424;55.154;14.722;2024-03-06T10:54:28;12.38;;;5.57;;
80961;SDS011;70424;55.154;14.722;2024-03-06T10:56:55;13.15;;;6.60;;
80961;SDS011;70424;55.154;14.722;2024-03-06T10:59:21;12.52;;;6.15;;
80961;SDS011;70424;55.154;14.722;2024-03-06T11:01:51;10.63;;;5.93;;
80961;SDS011;70424;55.154;14.722;2024-03-06T11:04:17;14.65;;;5.97;;
80961;SDS011;70424;55.154;14.722;2024-03-06T11:06:42;13.40;;;6.28;;
80961;SDS011;70424;55.154;14.722;2024-03-06T11:09:08;10.73;;;5.95;;
80961;SDS011;70424;55.154;14.722;2024-03-06T11:11:47;15.07;;;6.60;;
80961;SDS011;70424;55.154;14.722;2024-03-06T11:14:13;13.48;;;6.70;;
80961;SDS011;70424;55.154;14.722;2024-03-06T11:19:25;13.60;;;5.85;;
80961;SDS011;70424;55.154;14.722;2024-03-06T11:21:51;14.85;;;6.72;;
80961;SDS011;70424;55.154;14.722;2024-03-06T11:26:47;14.85;;;6.78;;
80961;SDS011;70424;55.154;14.722;2024-03-06T11:29:27;11.15;;;6.20;;
80961;SDS011;70424;55.154;14.722;2024-03-06T11:34:26;10.73;;;6.25;;
80961;SDS011;70424;55.154;14.722;2024-03-06T11:36:56;13.80;;;6.90;;
80961;SDS011;70424;55.154;14.722;2024-03-06T11:39:22;12.38;;;6.95;;
80961;SDS011;70424;55.154;14.722;2024-03-06T11:41:48;11.68;;;6.40;;
80961;SDS011;70424;55.154;14.722;2024-03-06T11:44:18;11.38;;;5.95;;
80961;SDS011;70424;55.154;14.722;2024-03-06T11:47:00;11.43;;;6.45;;
80961;SDS011;70424;55.154;14.722;2024-03-06T11:49:28;18.05;;;6.55;;
80961;SDS011;70424;55.154;14.722;2024-03-06T11:52:05;14.00;;;7.07;;
80961;SDS011;70424;55.154;14.722;2024-03-06T11:54:35;16.88;;;7.40;;
80961;SDS011;70424;55.154;14.722;2024-03-06T11:57:02;16.58;;;6.75;;
80961;SDS011;70424;55.154;14.722;2024-03-06T11:59:29;12.40;;;6.68;;
80961;SDS011;70424;55.154;14.722;2024-03-06T12:01:56;11.40;;;6.47;;
80961;SDS011;70424;55.154;14.722;2024-03-06T12:04:23;13.90;;;6.85;;
80961;SDS011;70424;55.154;14.722;2024-03-06T12:06:50;13.40;;;5.95;;
80961;SDS011;70424;55.154;14.722;2024-03-06T12:09:15;14.20;;;6.53;;
80961;SDS011;70424;55.154;14.722;2024-03-06T12:11:41;14.63;;;6.40;;
80961;SDS011;70424;55.154;14.722;2024-03-06T12:14:12;11.77;;;6.18;;
80961;SDS011;70424;55.154;14.722;2024-03-06T12:16:58;13.32;;;6.95;;
80961;SDS011;70424;55.154;14.722;2024-03-06T12:19:28;11.55;;;7.00;;
80961;SDS011;70424;55.154;14.722;2024-03-06T12:21:59;12.20;;;6.47;;
80961;SDS011;70424;55.154;14.722;2024-03-06T12:24:29;13.00;;;6.75;;
80961;SDS011;70424;55.154;14.722;2024-03-06T12:27:01;13.82;;;7.25;;
80961;SDS011;70424;55.154;14.722;2024-03-06T12:29:28;14.20;;;6.95;;
80961;SDS011;70424;55.154;14.722;2024-03-06T12:31:58;10.23;;;5.97;;
80961;SDS011;70424;55.154;14.722;2024-03-06T12:34:24;10.82;;;6.32;;
80961;SDS011;70424;55.154;14.722;2024-03-06T12:36:50;12.55;;;6.82;;
80961;SDS011;70424;55.154;14.722;2024-03-06T12:39:15;12.68;;;6.65;;
80961;SDS011;70424;55.154;14.722;2024-03-06T12:41:46;12.95;;;6.10;;
80961;SDS011;70424;55.154;14.722;2024-03-06T12:44:12;13.07;;;5.90;;
80961;SDS011;70424;55.154;14.722;2024-03-06T12:46:37;12.63;;;6.72;;
80961;SDS011;70424;55.154;14.722;2024-03-06T12:49:02;13.07;;;6.40;;
80961;SDS011;70424;55.154;14.722;2024-03-06T12:51:28;10.15;;;5.97;;
80961;SDS011;70424;55.154;14.722;2024-03-06T12:53:53;13.48;;;6.32;;
80961;SDS011;70424;55.154;14.722;2024-03-06T12:56:19;14.57;;;6.20;;
80961;SDS011;70424;55.154;14.722;2024-03-06T12:58:44;13.23;;;6.13;;
80961;SDS011;70424;55.154;14.722;2024-03-06T13:01:10;9.80;;;5.85;;
80961;SDS011;70424;55.154;14.722;2024-03-06T13:03:36;11.77;;;5.63;;
80961;SDS011;70424;55.154;14.722;2024-03-06T13:06:02;12.25;;;5.93;;
80961;SDS011;70424;55.154;14.722;2024-03-06T13:08:29;11.15;;;6.55;;
80961;SDS011;70424;55.154;14.722;2024-03-06T13:10:54;10.68;;;5.93;;
80961;SDS011;70424;55.154;14.722;2024-03-06T13:13:21;9.57;;;5.65;;
80961;SDS011;70424;55.154;14.722;2024-03-06T13:15:48;12.10;;;5.78;;
80961;SDS011;70424;55.154;14.722;2024-03-06T13:18:14;12.30;;;6.20;;
80961;SDS011;70424;55.154;14.722;2024-03-06T13:20:40;11.20;;;5.60;;
80961;SDS011;70424;55.154;14.722;2024-03-06T13:23:06;10.75;;;6.00;;
80961;SDS011;70424;55.154;14.722;2024-03-06T13:25:31;10.98;;;5.80;;
80961;SDS011;70424;55.154;14.722;2024-03-06T13:27:56;12.45;;;6.35;;
80961;SDS011;70424;55.154;14.722;2024-03-06T13:30:22;9.90;;;6.00;;
80961;SDS011;70424;55.154;14.722;2024-03-06T13:32:49;11.77;;;6.07;;
80961;SDS011;70424;55.154;14.722;2024-03-06T13:35:15;10.88;;;5.60;;
80961;SDS011;70424;55.154;14.722;2024-03-06T13:37:44;10.82;;;5.45;;
80961;SDS011;70424;55.154;14.722;2024-03-06T13:40:09;12.77;;;5.93;;
80961;SDS011;70424;55.154;14.722;2024-03-06T13:42:41;10.95;;;5.53;;
80961;SDS011;70424;55.154;14.722;2024-03-06T13:45:08;10.25;;;5.72;;
80961;SDS011;70424;55.154;14.722;2024-03-06T13:47:37;11.70;;;5.95;;
80961;SDS011;70424;55.154;14.722;2024-03-06T13:50:04;12.13;;;6.32;;
80961;SDS011;70424;55.154;14.722;2024-03-06T13:52:33;9.30;;;5.35;;
80961;SDS011;70424;55.154;14.722;2024-03-06T13:54:59;10.75;;;5.82;;
80961;SDS011;70424;55.154;14.722;2024-03-06T13:57:27;13.13;;;5.93;;
80961;SDS011;70424;55.154;14.722;2024-03-06T13:59:52;10.40;;;5.80;;
80961;SDS011;70424;55.154;14.722;2024-03-06T14:02:18;13.45;;;5.47;;
80961;SDS011;70424;55.154;14.722;2024-03-06T14:04:43;11.43;;;6.32;;
80961;SDS011;70424;55.154;14.722;2024-03-06T14:07:09;9.27;;;5.18;;
80961;SDS011;70424;55.154;14.722;2024-03-06T14:09:34;10.25;;;5.28;;
80961;SDS011;70424;55.154;14.722;2024-03-06T14:11:59;11.57;;;5.93;;
80961;SDS011;70424;55.154;14.722;2024-03-06T14:14:25;10.85;;;5.35;;
80961;SDS011;70424;55.154;14.722;2024-03-06T14:16:50;14.82;;;6.07;;
80961;SDS011;70424;55.154;14.722;2024-03-06T14:19:16;8.68;;;5.65;;
80961;SDS011;70424;55.154;14.722;2024-03-06T14:21:41;13.45;;;6.30;;